sensor_id;sensor_type;location;lat;lon;timestamp;P1;durP1;ratioP1;P2;durP2;ratioP2
68700;SDS011;55682;51.114;5.882;2023-03-01T00:01:52;11.31;;;11.31;;
68700;SDS011;55682;51.114;5.882;2023-03-01T00:04:18;11.11;;;11.11;;
68700;SDS011;55682;51.114;5.882;2023-03-01T00:06:44;11.62;;;11.62;;
68700;SDS011;55682;51.114;5.882;2023-03-01T00:09:11;11.69;;;11.69;;
68700;SDS011;55682;51.114;5.882;2023-03-01T00:11:38;12.06;;;12.06;;
68700;SDS011;55682;51.114;5.882;2023-03-01T00:14:03;11.80;;;11.80;;
68700;SDS011;55682;51.114;5.882;2023-03-01T00:16:33;11.64;;;11.64;;
68700;SDS011;55682;51.114;5.882;2023-03-01T00:19:16;11.51;;;11.51;;
68700;SDS011;55682;51.114;5.882;2023-03-01T00:21:44;11.69;;;11.69;;
68700;SDS011;55682;51.114;5.882;2023-03-01T00:24:10;11.82;;;11.82;;
68700;SDS011;55682;51.114;5.882;2023-03-01T00:26:36;11.48;;;11.48;;
68700;SDS011;55682;51.114;5.882;2023-03-01T00:29:02;11.86;;;11.86;;
68700;SDS011;55682;51.114;5.882;2023-03-01T00:31:29;11.81;;;11.81;;
68700;SDS011;55682;51.114;5.882;2023-03-01T00:33:58;11.88;;;11.88;;
68700;SDS011;55682;51.114;5.882;2023-03-01T00:36:30;11.86;;;11.86;;
68700;SDS011;55682;51.114;5.882;2023-03-01T00:38:58;11.91;;;11.91;;
68700;SDS011;55682;51.114;5.882;2023-03-01T00:41:25;11.89;;;11.89;;
68700;SDS011;55682;51.114;5.882;2023-03-01T00:43:54;11.86;;;11.86;;
68700;SDS011;55682;51.114;5.882;2023-03-01T00:46:21;11.71;;;11.71;;
68700;SDS011;55682;51.114;5.882;2023-03-01T00:48:49;12.02;;;12.02;;
68700;SDS011;55682;51.114;5.882;2023-03-01T00:51:23;11.64;;;11.64;;
68700;SDS011;55682;51.114;5.882;2023-03-01T00:53:51;11.85;;;11.85;;
68700;SDS011;55682;51.114;5.882;2023-03-01T00:56:19;12.14;;;12.14;;
68700;SDS011;55682;51.114;5.882;2023-03-01T00:58:45;11.95;;;11.95;;
68700;SDS011;55682;51.114;5.882;2023-03-01T01:01:12;11.98;;;11.98;;
68700;SDS011;55682;51.114;5.882;2023-03-01T01:03:50;11.85;;;11.85;;
68700;SDS011;55682;51.114;5.882;2023-03-01T01:06:25;12.33;;;12.33;;
68700;SDS011;55682;51.114;5.882;2023-03-01T01:08:53;11.72;;;11.72;;
68700;SDS011;55682;51.114;5.882;2023-03-01T01:11:20;12.19;;;12.19;;
68700;SDS011;55682;51.114;5.882;2023-03-01T01:13:48;12.06;;;12.06;;
68700;SDS011;55682;51.114;5.882;2023-03-01T01:16:15;12.02;;;12.02;;
68700;SDS011;55682;51.114;5.882;2023-03-01T01:18:42;12.04;;;12.04;;
68700;SDS011;55682;51.114;5.882;2023-03-01T01:21:10;12.16;;;12.16;;
68700;SDS011;55682;51.114;5.882;2023-03-01T01:23:38;12.55;;;12.55;;
68700;SDS011;55682;51.114;5.882;2023-03-01T01:26:06;11.95;;;11.95;;
68700;SDS011;55682;51.114;5.882;2023-03-01T01:28:35;12.42;;;12.42;;
68700;SDS011;55682;51.114;5.882;2023-03-01T01:31:01;12.13;;;12.13;;
68700;SDS011;55682;51.114;5.882;2023-03-01T01:33:27;12.02;;;12.02;;
68700;SDS011;55682;51.114;5.882;2023-03-01T01:35:52;12.01;;;12.01;;
68700;SDS011;55682;51.114;5.882;2023-03-01T01:38:19;12.66;;;12.66;;
68700;SDS011;55682;51.114;5.882;2023-03-01T01:40:45;12.75;;;12.75;;
68700;SDS011;55682;51.114;5.882;2023-03-01T01:43:17;12.65;;;12.65;;
68700;SDS011;55682;51.114;5.882;2023-03-01T01:45:49;12.12;;;12.12;;
68700;SDS011;55682;51.114;5.882;2023-03-01T01:48:22;12.20;;;12.20;;
68700;SDS011;55682;51.114;5.882;2023-03-01T01:51:06;12.40;;;12.40;;
68700;SDS011;55682;51.114;5.882;2023-03-01T01:53:36;12.51;;;12.51;;
68700;SDS011;55682;51.114;5.882;2023-03-01T01:56:03;12.62;;;12.62;;
68700;SDS011;55682;51.114;5.882;2023-03-01T01:58:34;12.52;;;12.52;;
68700;SDS011;55682;51.114;5.882;2023-03-01T02:01:01;12.98;;;12.98;;
68700;SDS011;55682;51.114;5.882;2023-03-01T02:03:29;12.35;;;12.35;;
68700;SDS011;55682;51.114;5.882;2023-03-01T02:08:46;12.54;;;12.54;;
68700;SDS011;55682;51.114;5.882;2023-03-01T02:11:16;12.55;;;12.55;;
68700;SDS011;55682;51.114;5.882;2023-03-01T02:13:46;12.83;;;12.83;;
68700;SDS011;55682;51.114;5.882;2023-03-01T02:16:14;12.84;;;12.84;;
68700;SDS011;55682;51.114;5.882;2023-03-01T02:18:42;12.46;;;12.46;;
68700;SDS011;55682;51.114;5.882;2023-03-01T02:24:02;12.63;;;12.63;;
68700;SDS011;55682;51.114;5.882;2023-03-01T02:26:54;12.49;;;12.49;;
68700;SDS011;55682;51.114;5.882;2023-03-01T02:29:24;12.60;;;12.60;;
68700;SDS011;55682;51.114;5.882;2023-03-01T02:31:53;13.07;;;13.07;;
68700;SDS011;55682;51.114;5.882;2023-03-01T02:34:24;12.80;;;12.80;;
68700;SDS011;55682;51.114;5.882;2023-03-01T02:36:59;12.97;;;12.97;;
68700;SDS011;55682;51.114;5.882;2023-03-01T02:39:33;13.21;;;13.21;;
68700;SDS011;55682;51.114;5.882;2023-03-01T02:42:08;13.08;;;13.02;;
68700;SDS011;55682;51.114;5.882;2023-03-01T02:44:38;13.08;;;13.08;;
68700;SDS011;55682;51.114;5.882;2023-03-01T02:47:04;13.44;;;13.44;;
68700;SDS011;55682;51.114;5.882;2023-03-01T02:49:32;13.50;;;13.50;;
68700;SDS011;55682;51.114;5.882;2023-03-01T02:54:40;13.43;;;13.43;;
68700;SDS011;55682;51.114;5.882;2023-03-01T02:57:21;13.20;;;13.20;;
68700;SDS011;55682;51.114;5.882;2023-03-01T02:59:50;13.35;;;13.35;;
68700;SDS011;55682;51.114;5.882;2023-03-01T03:05:07;13.03;;;13.02;;
68700;SDS011;55682;51.114;5.882;2023-03-01T03:07:37;12.67;;;12.67;;
68700;SDS011;55682;51.114;5.882;2023-03-01T03:10:07;12.41;;;12.41;;
68700;SDS011;55682;51.114;5.882;2023-03-01T03:12:36;13.29;;;13.29;;
68700;SDS011;55682;51.114;5.882;2023-03-01T03:15:04;13.32;;;13.32;;
68700;SDS011;55682;51.114;5.882;2023-03-01T03:17:37;13.51;;;13.51;;
68700;SDS011;55682;51.114;5.882;2023-03-01T03:20:05;13.41;;;13.41;;
68700;SDS011;55682;51.114;5.882;2023-03-01T03:22:36;13.68;;;13.68;;
68700;SDS011;55682;51.114;5.882;2023-03-01T03:25:08;13.72;;;13.72;;
68700;SDS011;55682;51.114;5.882;2023-03-01T03:27:39;14.31;;;14.31;;
68700;SDS011;55682;51.114;5.882;2023-03-01T03:30:10;14.32;;;14.32;;
68700;SDS011;55682;51.114;5.882;2023-03-01T03:32:38;14.05;;;14.05;;
68700;SDS011;55682;51.114;5.882;2023-03-01T03:35:05;13.91;;;13.91;;
68700;SDS011;55682;51.114;5.882;2023-03-01T03:37:36;13.89;;;13.89;;
68700;SDS011;55682;51.114;5.882;2023-03-01T03:40:21;13.93;;;13.93;;
68700;SDS011;55682;51.114;5.882;2023-03-01T03:42:47;14.26;;;14.26;;
68700;SDS011;55682;51.114;5.882;2023-03-01T03:45:13;13.72;;;13.72;;
68700;SDS011;55682;51.114;5.882;2023-03-01T03:47:39;14.06;;;14.06;;
68700;SDS011;55682;51.114;5.882;2023-03-01T03:50:05;14.04;;;14.04;;
68700;SDS011;55682;51.114;5.882;2023-03-01T03:52:31;14.10;;;14.10;;
68700;SDS011;55682;51.114;5.882;2023-03-01T03:54:56;14.46;;;14.46;;
68700;SDS011;55682;51.114;5.882;2023-03-01T03:57:22;14.13;;;14.13;;
68700;SDS011;55682;51.114;5.882;2023-03-01T03:59:48;14.40;;;14.37;;
68700;SDS011;55682;51.114;5.882;2023-03-01T04:02:13;14.36;;;14.31;;
68700;SDS011;55682;51.114;5.882;2023-03-01T04:04:47;14.11;;;14.11;;
68700;SDS011;55682;51.114;5.882;2023-03-01T04:07:15;13.89;;;13.89;;
68700;SDS011;55682;51.114;5.882;2023-03-01T04:09:41;14.44;;;14.44;;
68700;SDS011;55682;51.114;5.882;2023-03-01T04:12:08;14.98;;;14.98;;
68700;SDS011;55682;51.114;5.882;2023-03-01T04:14:34;14.62;;;14.62;;
68700;SDS011;55682;51.114;5.882;2023-03-01T04:16:59;14.85;;;14.85;;
68700;SDS011;55682;51.114;5.882;2023-03-01T04:19:26;14.52;;;14.52;;
68700;SDS011;55682;51.114;5.882;2023-03-01T04:21:52;13.90;;;13.90;;
68700;SDS011;55682;51.114;5.882;2023-03-01T04:24:18;14.69;;;14.69;;
68700;SDS011;55682;51.114;5.882;2023-03-01T04:26:44;14.77;;;14.77;;
68700;SDS011;55682;51.114;5.882;2023-03-01T04:29:10;14.10;;;14.10;;
68700;SDS011;55682;51.114;5.882;2023-03-01T04:31:35;14.13;;;14.13;;
68700;SDS011;55682;51.114;5.882;2023-03-01T04:34:01;14.09;;;14.09;;
68700;SDS011;55682;51.114;5.882;2023-03-01T04:36:28;14.40;;;14.40;;
68700;SDS011;55682;51.114;5.882;2023-03-01T04:38:55;14.42;;;14.42;;
68700;SDS011;55682;51.114;5.882;2023-03-01T04:41:22;15.02;;;15.02;;
68700;SDS011;55682;51.114;5.882;2023-03-01T04:43:49;14.62;;;14.62;;
68700;SDS011;55682;51.114;5.882;2023-03-01T04:46:16;14.38;;;14.38;;
68700;SDS011;55682;51.114;5.882;2023-03-01T04:48:44;14.26;;;14.26;;
68700;SDS011;55682;51.114;5.882;2023-03-01T04:51:11;14.41;;;14.41;;
68700;SDS011;55682;51.114;5.882;2023-03-01T04:53:40;14.49;;;14.49;;
68700;SDS011;55682;51.114;5.882;2023-03-01T04:56:06;14.38;;;14.38;;
68700;SDS011;55682;51.114;5.882;2023-03-01T04:58:32;14.85;;;14.85;;
68700;SDS011;55682;51.114;5.882;2023-03-01T05:00:58;14.36;;;14.36;;
68700;SDS011;55682;51.114;5.882;2023-03-01T05:03:24;14.16;;;14.16;;
68700;SDS011;55682;51.114;5.882;2023-03-01T05:05:50;14.74;;;14.74;;
68700;SDS011;55682;51.114;5.882;2023-03-01T05:08:17;14.54;;;14.53;;
68700;SDS011;55682;51.114;5.882;2023-03-01T05:10:51;14.93;;;14.93;;
68700;SDS011;55682;51.114;5.882;2023-03-01T05:13:18;14.58;;;14.58;;
68700;SDS011;55682;51.114;5.882;2023-03-01T05:15:47;13.84;;;13.84;;
68700;SDS011;55682;51.114;5.882;2023-03-01T05:18:23;14.51;;;14.51;;
68700;SDS011;55682;51.114;5.882;2023-03-01T05:21:01;13.87;;;13.87;;
68700;SDS011;55682;51.114;5.882;2023-03-01T05:23:37;14.32;;;14.32;;
68700;SDS011;55682;51.114;5.882;2023-03-01T05:26:04;14.49;;;14.48;;
68700;SDS011;55682;51.114;5.882;2023-03-01T05:28:31;14.57;;;14.56;;
68700;SDS011;55682;51.114;5.882;2023-03-01T05:30:57;13.95;;;13.95;;
68700;SDS011;55682;51.114;5.882;2023-03-01T05:33:23;14.31;;;14.31;;
68700;SDS011;55682;51.114;5.882;2023-03-01T05:35:51;14.65;;;14.61;;
68700;SDS011;55682;51.114;5.882;2023-03-01T05:38:18;14.87;;;14.87;;
68700;SDS011;55682;51.114;5.882;2023-03-01T05:40:46;14.52;;;14.52;;
68700;SDS011;55682;51.114;5.882;2023-03-01T05:43:13;14.60;;;14.60;;
68700;SDS011;55682;51.114;5.882;2023-03-01T05:45:41;14.63;;;14.59;;
68700;SDS011;55682;51.114;5.882;2023-03-01T05:48:08;14.02;;;13.99;;
68700;SDS011;55682;51.114;5.882;2023-03-01T05:50:36;14.17;;;14.16;;
68700;SDS011;55682;51.114;5.882;2023-03-01T05:53:11;14.66;;;14.66;;
68700;SDS011;55682;51.114;5.882;2023-03-01T05:55:40;13.95;;;13.95;;
68700;SDS011;55682;51.114;5.882;2023-03-01T05:58:09;14.24;;;14.24;;
68700;SDS011;55682;51.114;5.882;2023-03-01T06:00:39;14.65;;;14.65;;
68700;SDS011;55682;51.114;5.882;2023-03-01T06:03:04;14.30;;;14.30;;
68700;SDS011;55682;51.114;5.882;2023-03-01T06:05:30;14.34;;;14.31;;
68700;SDS011;55682;51.114;5.882;2023-03-01T06:08:00;14.16;;;14.16;;
68700;SDS011;55682;51.114;5.882;2023-03-01T06:10:27;13.85;;;13.85;;
68700;SDS011;55682;51.114;5.882;2023-03-01T06:12:53;13.17;;;13.17;;
68700;SDS011;55682;51.114;5.882;2023-03-01T06:15:19;13.47;;;13.47;;
68700;SDS011;55682;51.114;5.882;2023-03-01T06:17:45;13.31;;;13.31;;
68700;SDS011;55682;51.114;5.882;2023-03-01T06:20:12;13.92;;;13.92;;
68700;SDS011;55682;51.114;5.882;2023-03-01T06:22:41;13.72;;;13.71;;
68700;SDS011;55682;51.114;5.882;2023-03-01T06:25:09;14.06;;;14.06;;
68700;SDS011;55682;51.114;5.882;2023-03-01T06:27:36;14.80;;;14.80;;
68700;SDS011;55682;51.114;5.882;2023-03-01T06:30:02;14.32;;;14.32;;
68700;SDS011;55682;51.114;5.882;2023-03-01T06:32:28;15.23;;;15.23;;
68700;SDS011;55682;51.114;5.882;2023-03-01T06:34:54;15.28;;;15.28;;
68700;SDS011;55682;51.114;5.882;2023-03-01T06:37:19;14.80;;;14.79;;
68700;SDS011;55682;51.114;5.882;2023-03-01T06:39:45;14.45;;;14.44;;
68700;SDS011;55682;51.114;5.882;2023-03-01T06:42:10;13.95;;;13.91;;
68700;SDS011;55682;51.114;5.882;2023-03-01T06:44:36;14.42;;;14.42;;
68700;SDS011;55682;51.114;5.882;2023-03-01T06:47:02;14.90;;;14.90;;
68700;SDS011;55682;51.114;5.882;2023-03-01T06:49:29;14.12;;;14.12;;
68700;SDS011;55682;51.114;5.882;2023-03-01T06:51:55;13.82;;;13.82;;
68700;SDS011;55682;51.114;5.882;2023-03-01T06:54:21;14.65;;;14.65;;
68700;SDS011;55682;51.114;5.882;2023-03-01T06:56:47;14.69;;;14.69;;
68700;SDS011;55682;51.114;5.882;2023-03-01T06:59:14;14.67;;;14.67;;
68700;SDS011;55682;51.114;5.882;2023-03-01T07:01:40;14.24;;;14.24;;
68700;SDS011;55682;51.114;5.882;2023-03-01T07:04:06;14.52;;;14.51;;
68700;SDS011;55682;51.114;5.882;2023-03-01T07:06:32;13.91;;;13.91;;
68700;SDS011;55682;51.114;5.882;2023-03-01T07:08:58;14.19;;;14.19;;
68700;SDS011;55682;51.114;5.882;2023-03-01T07:11:23;13.89;;;13.89;;
68700;SDS011;55682;51.114;5.882;2023-03-01T07:13:49;13.74;;;13.74;;
68700;SDS011;55682;51.114;5.882;2023-03-01T07:16:15;13.75;;;13.75;;
68700;SDS011;55682;51.114;5.882;2023-03-01T07:18:40;13.11;;;13.08;;
68700;SDS011;55682;51.114;5.882;2023-03-01T07:21:07;12.45;;;12.44;;
68700;SDS011;55682;51.114;5.882;2023-03-01T07:23:34;13.91;;;13.91;;
68700;SDS011;55682;51.114;5.882;2023-03-01T07:26:00;14.30;;;14.30;;
68700;SDS011;55682;51.114;5.882;2023-03-01T07:28:26;14.20;;;14.20;;
68700;SDS011;55682;51.114;5.882;2023-03-01T07:30:53;13.75;;;13.74;;
68700;SDS011;55682;51.114;5.882;2023-03-01T07:33:19;13.36;;;13.36;;
68700;SDS011;55682;51.114;5.882;2023-03-01T07:35:45;12.83;;;12.83;;
68700;SDS011;55682;51.114;5.882;2023-03-01T07:38:11;12.81;;;12.81;;
68700;SDS011;55682;51.114;5.882;2023-03-01T07:40:36;13.56;;;13.56;;
68700;SDS011;55682;51.114;5.882;2023-03-01T07:43:03;12.62;;;12.62;;
68700;SDS011;55682;51.114;5.882;2023-03-01T07:45:29;13.43;;;13.43;;
68700;SDS011;55682;51.114;5.882;2023-03-01T07:47:55;13.71;;;13.71;;
68700;SDS011;55682;51.114;5.882;2023-03-01T07:50:21;12.66;;;12.66;;
68700;SDS011;55682;51.114;5.882;2023-03-01T07:52:48;13.63;;;13.63;;
68700;SDS011;55682;51.114;5.882;2023-03-01T07:55:16;14.28;;;14.28;;
68700;SDS011;55682;51.114;5.882;2023-03-01T07:57:42;14.03;;;14.03;;
68700;SDS011;55682;51.114;5.882;2023-03-01T08:00:09;14.05;;;14.05;;
68700;SDS011;55682;51.114;5.882;2023-03-01T08:02:39;14.23;;;14.23;;
68700;SDS011;55682;51.114;5.882;2023-03-01T08:05:07;14.20;;;14.20;;
68700;SDS011;55682;51.114;5.882;2023-03-01T08:07:34;13.89;;;13.89;;
68700;SDS011;55682;51.114;5.882;2023-03-01T08:10:00;14.08;;;14.08;;
68700;SDS011;55682;51.114;5.882;2023-03-01T08:12:25;14.30;;;14.30;;
68700;SDS011;55682;51.114;5.882;2023-03-01T08:14:53;14.17;;;14.17;;
68700;SDS011;55682;51.114;5.882;2023-03-01T08:17:19;14.61;;;14.61;;
68700;SDS011;55682;51.114;5.882;2023-03-01T08:19:45;13.49;;;13.49;;
68700;SDS011;55682;51.114;5.882;2023-03-01T08:22:11;12.21;;;12.21;;
68700;SDS011;55682;51.114;5.882;2023-03-01T08:24:36;11.74;;;11.74;;
68700;SDS011;55682;51.114;5.882;2023-03-01T08:27:02;11.50;;;11.50;;
68700;SDS011;55682;51.114;5.882;2023-03-01T08:29:29;12.88;;;12.88;;
68700;SDS011;55682;51.114;5.882;2023-03-01T08:31:56;12.96;;;12.96;;
68700;SDS011;55682;51.114;5.882;2023-03-01T08:34:21;11.86;;;11.86;;
68700;SDS011;55682;51.114;5.882;2023-03-01T08:36:47;12.76;;;12.76;;
68700;SDS011;55682;51.114;5.882;2023-03-01T08:39:15;13.86;;;13.86;;
68700;SDS011;55682;51.114;5.882;2023-03-01T08:41:42;14.09;;;14.09;;
68700;SDS011;55682;51.114;5.882;2023-03-01T08:44:09;14.48;;;14.48;;
68700;SDS011;55682;51.114;5.882;2023-03-01T08:46:37;13.82;;;13.82;;
68700;SDS011;55682;51.114;5.882;2023-03-01T08:49:15;14.02;;;14.02;;
68700;SDS011;55682;51.114;5.882;2023-03-01T08:51:43;13.05;;;13.05;;
68700;SDS011;55682;51.114;5.882;2023-03-01T08:54:11;13.84;;;13.84;;
68700;SDS011;55682;51.114;5.882;2023-03-01T08:56:40;13.15;;;13.15;;
68700;SDS011;55682;51.114;5.882;2023-03-01T08:59:06;13.31;;;13.31;;
68700;SDS011;55682;51.114;5.882;2023-03-01T09:01:32;13.46;;;13.46;;
68700;SDS011;55682;51.114;5.882;2023-03-01T09:03:58;13.67;;;13.67;;
68700;SDS011;55682;51.114;5.882;2023-03-01T09:06:24;12.91;;;12.91;;
68700;SDS011;55682;51.114;5.882;2023-03-01T09:08:50;13.92;;;13.92;;
68700;SDS011;55682;51.114;5.882;2023-03-01T09:11:17;13.71;;;13.71;;
68700;SDS011;55682;51.114;5.882;2023-03-01T09:13:46;13.86;;;13.86;;
68700;SDS011;55682;51.114;5.882;2023-03-01T09:16:14;13.56;;;13.56;;
68700;SDS011;55682;51.114;5.882;2023-03-01T09:18:42;12.17;;;12.17;;
68700;SDS011;55682;51.114;5.882;2023-03-01T09:21:11;13.34;;;13.34;;
68700;SDS011;55682;51.114;5.882;2023-03-01T09:23:43;12.87;;;12.78;;
68700;SDS011;55682;51.114;5.882;2023-03-01T09:26:12;11.57;;;11.51;;
68700;SDS011;55682;51.114;5.882;2023-03-01T09:28:41;13.82;;;13.81;;
68700;SDS011;55682;51.114;5.882;2023-03-01T09:31:08;13.94;;;13.94;;
68700;SDS011;55682;51.114;5.882;2023-03-01T09:33:34;14.08;;;14.07;;
68700;SDS011;55682;51.114;5.882;2023-03-01T09:36:00;12.27;;;12.25;;
68700;SDS011;55682;51.114;5.882;2023-03-01T09:38:29;12.69;;;12.69;;
68700;SDS011;55682;51.114;5.882;2023-03-01T09:40:56;11.54;;;11.53;;
68700;SDS011;55682;51.114;5.882;2023-03-01T09:43:26;12.66;;;12.59;;
68700;SDS011;55682;51.114;5.882;2023-03-01T09:46:19;14.45;;;14.38;;
68700;SDS011;55682;51.114;5.882;2023-03-01T09:48:50;13.54;;;13.54;;
68700;SDS011;55682;51.114;5.882;2023-03-01T09:51:31;11.21;;;11.20;;
68700;SDS011;55682;51.114;5.882;2023-03-01T09:54:01;12.18;;;12.18;;
68700;SDS011;55682;51.114;5.882;2023-03-01T10:09:39;13.41;;;13.41;;
68700;SDS011;55682;51.114;5.882;2023-03-01T10:12:09;11.23;;;11.17;;
68700;SDS011;55682;51.114;5.882;2023-03-01T10:14:56;11.99;;;11.99;;
68700;SDS011;55682;51.114;5.882;2023-03-01T10:17:39;13.28;;;13.25;;
68700;SDS011;55682;51.114;5.882;2023-03-01T10:20:17;13.76;;;13.67;;
68700;SDS011;55682;51.114;5.882;2023-03-01T10:22:55;13.47;;;13.47;;
68700;SDS011;55682;51.114;5.882;2023-03-01T10:25:23;11.48;;;11.47;;
68700;SDS011;55682;51.114;5.882;2023-03-01T10:28:20;10.77;;;10.65;;
68700;SDS011;55682;51.114;5.882;2023-03-01T10:30:53;11.81;;;11.80;;
68700;SDS011;55682;51.114;5.882;2023-03-01T10:33:26;11.33;;;11.33;;
68700;SDS011;55682;51.114;5.882;2023-03-01T10:35:55;10.35;;;10.34;;
68700;SDS011;55682;51.114;5.882;2023-03-01T10:38:21;11.30;;;11.26;;
68700;SDS011;55682;51.114;5.882;2023-03-01T10:40:57;10.45;;;10.37;;
68700;SDS011;55682;51.114;5.882;2023-03-01T10:43:45;11.70;;;11.70;;
68700;SDS011;55682;51.114;5.882;2023-03-01T10:51:41;8.90;;;8.89;;
68700;SDS011;55682;51.114;5.882;2023-03-01T10:54:16;9.81;;;9.75;;
68700;SDS011;55682;51.114;5.882;2023-03-01T10:56:50;11.53;;;11.52;;
68700;SDS011;55682;51.114;5.882;2023-03-01T10:59:26;9.77;;;9.65;;
68700;SDS011;55682;51.114;5.882;2023-03-01T11:07:27;10.94;;;10.94;;
68700;SDS011;55682;51.114;5.882;2023-03-01T11:09:54;11.86;;;11.86;;
68700;SDS011;55682;51.114;5.882;2023-03-01T11:12:20;13.77;;;13.77;;
68700;SDS011;55682;51.114;5.882;2023-03-01T11:14:50;10.99;;;10.98;;
68700;SDS011;55682;51.114;5.882;2023-03-01T11:22:43;13.90;;;13.90;;
68700;SDS011;55682;51.114;5.882;2023-03-01T11:25:17;12.47;;;12.39;;
68700;SDS011;55682;51.114;5.882;2023-03-01T11:27:52;12.36;;;12.34;;
68700;SDS011;55682;51.114;5.882;2023-03-01T11:35:34;11.03;;;11.03;;
68700;SDS011;55682;51.114;5.882;2023-03-01T11:40:49;13.09;;;13.07;;
68700;SDS011;55682;51.114;5.882;2023-03-01T11:48:35;12.25;;;12.25;;
68700;SDS011;55682;51.114;5.882;2023-03-01T11:51:19;11.26;;;11.26;;
68700;SDS011;55682;51.114;5.882;2023-03-01T11:53:56;11.14;;;11.14;;
68700;SDS011;55682;51.114;5.882;2023-03-01T11:56:35;10.28;;;10.28;;
68700;SDS011;55682;51.114;5.882;2023-03-01T12:27:02;11.68;;;11.68;;
68700;SDS011;55682;51.114;5.882;2023-03-01T12:29:39;11.91;;;11.91;;
68700;SDS011;55682;51.114;5.882;2023-03-01T12:51:39;12.84;;;12.84;;
68700;SDS011;55682;51.114;5.882;2023-03-01T12:54:22;11.88;;;11.88;;
68700;SDS011;55682;51.114;5.882;2023-03-01T12:56:54;10.29;;;10.26;;
68700;SDS011;55682;51.114;5.882;2023-03-01T12:59:28;12.07;;;12.06;;
68700;SDS011;55682;51.114;5.882;2023-03-01T13:15:36;13.73;;;13.68;;
68700;SDS011;55682;51.114;5.882;2023-03-01T13:20:45;13.98;;;13.98;;
68700;SDS011;55682;51.114;5.882;2023-03-01T13:23:23;13.71;;;13.58;;
68700;SDS011;55682;51.114;5.882;2023-03-01T13:26:08;13.66;;;13.60;;
68700;SDS011;55682;51.114;5.882;2023-03-01T13:31:07;13.55;;;13.55;;
68700;SDS011;55682;51.114;5.882;2023-03-01T13:36:09;12.80;;;12.80;;
68700;SDS011;55682;51.114;5.882;2023-03-01T13:55:14;12.11;;;12.03;;
68700;SDS011;55682;51.114;5.882;2023-03-01T13:57:46;11.94;;;11.91;;
68700;SDS011;55682;51.114;5.882;2023-03-01T14:00:25;9.71;;;9.68;;
68700;SDS011;55682;51.114;5.882;2023-03-01T14:03:02;8.60;;;8.60;;
68700;SDS011;55682;51.114;5.882;2023-03-01T14:06:01;10.82;;;10.67;;
68700;SDS011;55682;51.114;5.882;2023-03-01T14:08:37;10.30;;;10.24;;
68700;SDS011;55682;51.114;5.882;2023-03-01T14:11:08;11.33;;;11.32;;
68700;SDS011;55682;51.114;5.882;2023-03-01T14:14:09;12.23;;;12.13;;
68700;SDS011;55682;51.114;5.882;2023-03-01T14:16:40;11.73;;;11.72;;
68700;SDS011;55682;51.114;5.882;2023-03-01T14:19:29;11.13;;;11.13;;
68700;SDS011;55682;51.114;5.882;2023-03-01T14:24:46;11.35;;;11.35;;
68700;SDS011;55682;51.114;5.882;2023-03-01T14:27:39;9.69;;;9.69;;
68700;SDS011;55682;51.114;5.882;2023-03-01T14:30:21;9.24;;;9.24;;
68700;SDS011;55682;51.114;5.882;2023-03-01T14:32:58;10.23;;;10.23;;
68700;SDS011;55682;51.114;5.882;2023-03-01T14:35:33;10.05;;;10.05;;
68700;SDS011;55682;51.114;5.882;2023-03-01T14:38:01;9.80;;;9.80;;
68700;SDS011;55682;51.114;5.882;2023-03-01T14:42:56;9.98;;;9.98;;
68700;SDS011;55682;51.114;5.882;2023-03-01T14:45:27;9.84;;;9.77;;
68700;SDS011;55682;51.114;5.882;2023-03-01T14:47:55;9.34;;;9.30;;
68700;SDS011;55682;51.114;5.882;2023-03-01T14:50:31;8.92;;;8.92;;
68700;SDS011;55682;51.114;5.882;2023-03-01T14:53:05;10.01;;;9.97;;
68700;SDS011;55682;51.114;5.882;2023-03-01T14:55:54;8.97;;;8.97;;
68700;SDS011;55682;51.114;5.882;2023-03-01T14:58:23;9.29;;;9.28;;
68700;SDS011;55682;51.114;5.882;2023-03-01T15:00:52;8.96;;;8.95;;
68700;SDS011;55682;51.114;5.882;2023-03-01T15:03:24;8.25;;;8.25;;
68700;SDS011;55682;51.114;5.882;2023-03-01T15:06:10;8.24;;;8.24;;
68700;SDS011;55682;51.114;5.882;2023-03-01T15:08:42;7.32;;;7.32;;
68700;SDS011;55682;51.114;5.882;2023-03-01T15:13:38;9.15;;;9.15;;
68700;SDS011;55682;51.114;5.882;2023-03-01T15:18:32;7.62;;;7.62;;
68700;SDS011;55682;51.114;5.882;2023-03-01T15:24:06;9.18;;;9.18;;
68700;SDS011;55682;51.114;5.882;2023-03-01T15:29:24;7.68;;;7.68;;
68700;SDS011;55682;51.114;5.882;2023-03-01T15:32:02;8.28;;;8.28;;
68700;SDS011;55682;51.114;5.882;2023-03-01T15:34:38;9.11;;;9.11;;
68700;SDS011;55682;51.114;5.882;2023-03-01T15:37:35;9.97;;;9.97;;
68700;SDS011;55682;51.114;5.882;2023-03-01T15:42:59;9.75;;;9.75;;
68700;SDS011;55682;51.114;5.882;2023-03-01T15:45:27;9.90;;;9.84;;
68700;SDS011;55682;51.114;5.882;2023-03-01T15:48:00;9.97;;;9.96;;
68700;SDS011;55682;51.114;5.882;2023-03-01T15:50:32;9.27;;;9.23;;
68700;SDS011;55682;51.114;5.882;2023-03-01T15:53:03;9.58;;;9.44;;
68700;SDS011;55682;51.114;5.882;2023-03-01T15:55:32;9.41;;;9.29;;
68700;SDS011;55682;51.114;5.882;2023-03-01T15:58:15;9.61;;;9.54;;
68700;SDS011;55682;51.114;5.882;2023-03-01T16:00:44;9.70;;;9.63;;
68700;SDS011;55682;51.114;5.882;2023-03-01T16:03:12;10.05;;;10.05;;
68700;SDS011;55682;51.114;5.882;2023-03-01T16:05:40;9.39;;;9.39;;
68700;SDS011;55682;51.114;5.882;2023-03-01T16:08:06;10.59;;;10.59;;
68700;SDS011;55682;51.114;5.882;2023-03-01T16:10:32;9.97;;;9.92;;
68700;SDS011;55682;51.114;5.882;2023-03-01T16:12:59;10.47;;;10.35;;
68700;SDS011;55682;51.114;5.882;2023-03-01T16:15:29;9.93;;;9.90;;
68700;SDS011;55682;51.114;5.882;2023-03-01T16:17:56;9.51;;;9.50;;
68700;SDS011;55682;51.114;5.882;2023-03-01T16:20:26;10.00;;;10.00;;
68700;SDS011;55682;51.114;5.882;2023-03-01T16:22:53;9.22;;;9.22;;
68700;SDS011;55682;51.114;5.882;2023-03-01T16:25:20;8.67;;;8.66;;
68700;SDS011;55682;51.114;5.882;2023-03-01T16:27:47;9.11;;;9.10;;
68700;SDS011;55682;51.114;5.882;2023-03-01T16:30:15;9.86;;;9.82;;
68700;SDS011;55682;51.114;5.882;2023-03-01T16:32:44;10.23;;;10.22;;
68700;SDS011;55682;51.114;5.882;2023-03-01T16:35:12;9.78;;;9.76;;
68700;SDS011;55682;51.114;5.882;2023-03-01T16:37:40;10.56;;;10.45;;
68700;SDS011;55682;51.114;5.882;2023-03-01T16:40:07;10.23;;;10.12;;
68700;SDS011;55682;51.114;5.882;2023-03-01T16:42:42;9.60;;;9.60;;
68700;SDS011;55682;51.114;5.882;2023-03-01T16:45:08;10.04;;;10.00;;
68700;SDS011;55682;51.114;5.882;2023-03-01T16:47:34;9.82;;;9.78;;
68700;SDS011;55682;51.114;5.882;2023-03-01T16:50:00;9.28;;;9.26;;
68700;SDS011;55682;51.114;5.882;2023-03-01T16:52:26;8.86;;;8.84;;
68700;SDS011;55682;51.114;5.882;2023-03-01T16:54:51;9.40;;;9.37;;
68700;SDS011;55682;51.114;5.882;2023-03-01T16:57:17;10.25;;;10.15;;
68700;SDS011;55682;51.114;5.882;2023-03-01T16:59:43;10.05;;;9.99;;
68700;SDS011;55682;51.114;5.882;2023-03-01T17:02:12;9.82;;;9.81;;
68700;SDS011;55682;51.114;5.882;2023-03-01T17:04:40;10.23;;;10.17;;
68700;SDS011;55682;51.114;5.882;2023-03-01T17:07:05;9.82;;;9.77;;
68700;SDS011;55682;51.114;5.882;2023-03-01T17:09:34;10.27;;;10.26;;
68700;SDS011;55682;51.114;5.882;2023-03-01T17:12:02;10.73;;;10.67;;
68700;SDS011;55682;51.114;5.882;2023-03-01T17:14:30;10.19;;;10.11;;
68700;SDS011;55682;51.114;5.882;2023-03-01T17:16:56;10.10;;;10.07;;
68700;SDS011;55682;51.114;5.882;2023-03-01T17:19:22;10.20;;;10.20;;